Time;durP1;ratioP1;P1;durP2;ratioP2;P2;SDS_P1;SDS_P2;PMS_P1;PMS_P2;Temp;Humidity;BMP_temperature;BMP_pressure;BME280_temperature;BME280_humidity;BME280_pressure;Samples;Min_cycle;Max_cycle;Signal;HPM_P1;HPM_P2
2024/03/07 00:02:13;;;;;;;11.70;8.68;;;6.60;91.40;;;;;;5054039;28;20064;-62
2024/03/07 00:04:39;;;;;;;11.10;8.60;;;6.60;91.00;;;;;;5053482;28;20067;-63
2024/03/07 00:07:05;;;;;;;10.43;8.43;;;6.60;91.00;;;;;;5055542;28;20035;-63
2024/03/07 00:09:34;;;;;;;12.20;8.65;;;6.60;91.00;;;;;;5061955;28;20033;-63
2024/03/07 00:12:04;;;;;;;10.82;8.60;;;6.60;91.00;;;;;;5063091;28;20307;-63
2024/03/07 00:14:29;;;;;;;11.52;8.73;;;6.60;90.90;;;;;;5060206;28;20056;-62
2024/03/07 00:16:56;;;;;;;12.32;9.02;;;6.60;90.90;;;;;;5060815;28;20512;-62
2024/03/07 00:19:24;;;;;;;12.50;9.30;;;6.60;90.90;;;;;;5059911;28;20040;-63
2024/03/07 00:21:50;;;;;;;14.05;9.63;;;6.60;91.00;;;;;;5055993;28;20131;-62
2024/03/07 00:24:16;;;;;;;12.73;9.52;;;6.60;91.00;;;;;;5057401;28;20047;-62
2024/03/07 00:26:41;;;;;;;13.48;9.80;;;6.60;91.00;;;;;;5062104;28;20111;-62
2024/03/07 00:29:07;;;;;;;12.13;9.07;;;6.50;90.90;;;;;;5068398;28;20037;-62
2024/03/07 00:31:33;;;;;;;12.88;9.68;;;6.60;91.00;;;;;;5057260;28;20052;-62
2024/03/07 00:33:59;;;;;;;12.93;9.55;;;6.60;91.00;;;;;;5063744;28;20040;-62
2024/03/07 00:36:25;;;;;;;11.52;8.75;;;6.60;91.00;;;;;;5065718;28;20190;-62
2024/03/07 00:38:51;;;;;;;12.55;9.07;;;6.50;91.00;;;;;;5060429;28;20508;-61
2024/03/07 00:41:17;;;;;;;12.23;9.20;;;6.60;91.10;;;;;;5068021;28;20041;-62
2024/03/07 00:43:43;;;;;;;12.73;8.82;;;6.60;91.10;;;;;;5062368;28;20078;-61
2024/03/07 00:46:10;;;;;;;12.70;9.13;;;6.60;91.10;;;;;;5065006;28;20131;-61
2024/03/07 00:48:36;;;;;;;13.18;9.40;;;6.60;91.10;;;;;;5064362;28;20029;-61
2024/03/07 00:51:04;;;;;;;12.65;9.40;;;6.60;91.00;;;;;;5068591;28;20032;-62
2024/03/07 00:53:29;;;;;;;12.90;9.88;;;6.60;91.10;;;;;;5067293;28;20515;-63
2024/03/07 00:55:55;;;;;;;13.15;9.80;;;6.60;91.10;;;;;;5060238;28;20037;-62
2024/03/07 00:58:21;;;;;;;13.25;9.55;;;6.60;91.10;;;;;;5066521;28;20056;-62
2024/03/07 01:00:47;;;;;;;12.80;9.13;;;6.60;91.10;;;;;;5064980;28;20032;-63
2024/03/07 01:03:13;;;;;;;13.55;10.20;;;6.60;91.10;;;;;;5068058;28;20032;-62
2024/03/07 01:05:40;;;;;;;13.95;10.13;;;6.70;91.10;;;;;;5064313;28;20060;-62
2024/03/07 01:08:06;;;;;;;13.10;9.38;;;6.70;91.10;;;;;;5073860;28;20512;-62
2024/03/07 01:10:31;;;;;;;12.90;9.57;;;6.70;91.10;;;;;;5062759;28;20052;-62
2024/03/07 01:13:01;;;;;;;13.80;9.68;;;6.70;91.10;;;;;;5062537;28;21094;-62
2024/03/07 01:15:27;;;;;;;12.43;8.93;;;6.70;91.10;;;;;;5066250;28;20504;-61
2024/03/07 01:17:52;;;;;;;13.35;9.73;;;6.70;91.00;;;;;;5065241;28;20123;-62
2024/03/07 01:20:18;;;;;;;13.35;9.60;;;6.70;91.00;;;;;;5075290;28;20120;-62
2024/03/07 01:22:44;;;;;;;14.50;10.15;;;6.80;91.00;;;;;;5059082;28;20400;-62
2024/03/07 01:25:12;;;;;;;13.43;9.85;;;6.70;91.00;;;;;;5064785;28;20032;-62
2024/03/07 01:27:37;;;;;;;13.55;9.50;;;6.70;91.00;;;;;;5068896;28;20037;-60
2024/03/07 01:30:03;;;;;;;13.43;9.73;;;6.80;91.00;;;;;;5068234;28;20415;-62
2024/03/07 01:32:30;;;;;;;15.02;10.27;;;6.70;91.00;;;;;;5071918;28;20037;-60
2024/03/07 01:34:55;;;;;;;14.00;9.98;;;6.70;91.00;;;;;;5065303;28;20450;-63
2024/03/07 01:37:21;;;;;;;13.52;9.43;;;6.80;91.00;;;;;;5062497;28;20041;-62
2024/03/07 01:39:47;;;;;;;12.52;9.15;;;6.80;91.00;;;;;;5060950;28;20432;-60
2024/03/07 01:42:13;;;;;;;14.85;10.45;;;6.80;91.00;;;;;;5058416;28;20132;-61
2024/03/07 01:44:41;;;;;;;15.35;10.65;;;6.80;91.00;;;;;;5063504;28;20029;-60
2024/03/07 01:47:07;;;;;;;13.35;9.73;;;6.80;91.00;;;;;;5063092;28;20036;-61
2024/03/07 01:49:33;;;;;;;13.82;9.52;;;6.80;91.30;;;;;;5057440;28;20060;-62
2024/03/07 01:51:59;;;;;;;14.57;10.48;;;6.70;90.90;;;;;;5065237;28;20040;-62
2024/03/07 01:54:26;;;;;;;16.83;10.32;;;6.80;91.00;;;;;;5064422;28;20047;-62
2024/03/07 01:56:52;;;;;;;15.20;10.55;;;6.80;91.00;;;;;;5061135;28;20526;-62
2024/03/07 01:59:20;;;;;;;17.17;10.88;;;6.80;91.00;;;;;;5062800;28;20041;-61
2024/03/07 02:01:46;;;;;;;15.65;11.00;;;6.80;91.00;;;;;;5057965;28;20481;-62
2024/03/07 02:04:14;;;;;;;14.65;10.05;;;6.80;91.00;;;;;;5057221;28;20036;-62
2024/03/07 02:06:40;;;;;;;14.95;10.25;;;6.80;91.00;;;;;;5061754;28;20040;-61
2024/03/07 02:09:06;;;;;;;15.15;10.52;;;6.80;90.90;;;;;;5066465;28;20036;-61
2024/03/07 02:11:32;;;;;;;15.50;10.35;;;6.80;90.90;;;;;;5056368;28;20515;-61
2024/03/07 02:13:58;;;;;;;16.73;11.13;;;6.80;90.90;;;;;;5060461;28;20069;-62
2024/03/07 02:16:24;;;;;;;16.75;11.32;;;6.80;90.90;;;;;;5060193;28;20041;-61
2024/03/07 02:18:50;;;;;;;16.05;11.23;;;6.80;90.90;;;;;;5059258;28;20138;-62
2024/03/07 02:21:16;;;;;;;16.23;10.90;;;6.80;91.00;;;;;;5065483;28;20510;-62
2024/03/07 02:23:42;;;;;;;16.70;11.15;;;6.80;91.00;;;;;;5064351;28;20114;-60
2024/03/07 02:26:08;;;;;;;14.70;10.38;;;6.80;90.90;;;;;;5056810;28;20060;-61
2024/03/07 02:28:37;;;;;;;16.45;10.93;;;6.80;90.90;;;;;;5059478;28;20056;-63
2024/03/07 02:31:02;;;;;;;16.02;10.90;;;6.80;90.80;;;;;;5063010;28;20042;-60
2024/03/07 02:33:28;;;;;;;16.13;11.05;;;6.80;90.80;;;;;;5060889;28;20032;-62
2024/03/07 02:35:53;;;;;;;15.43;10.73;;;6.80;90.90;;;;;;5070080;28;20123;-63
2024/03/07 02:38:19;;;;;;;16.60;10.90;;;6.80;90.90;;;;;;5056299;28;20044;-62
2024/03/07 02:40:46;;;;;;;16.52;11.43;;;6.80;90.90;;;;;;5059480;28;20488;-62
2024/03/07 02:43:12;;;;;;;17.63;11.70;;;6.80;90.80;;;;;;5065216;28;20083;-62
2024/03/07 02:45:37;;;;;;;15.90;11.05;;;6.80;90.80;;;;;;5061231;28;20438;-62
2024/03/07 02:48:05;;;;;;;16.65;11.23;;;6.80;90.80;;;;;;5067487;28;20104;-62
2024/03/07 02:50:31;;;;;;;16.73;10.88;;;6.80;90.80;;;;;;5062171;28;20040;-62
2024/03/07 02:52:56;;;;;;;19.23;12.13;;;6.80;90.80;;;;;;5060775;28;20043;-62
2024/03/07 02:55:22;;;;;;;17.27;11.52;;;6.80;91.20;;;;;;5059792;28;20041;-62
2024/03/07 02:57:48;;;;;;;17.15;11.43;;;6.80;90.80;;;;;;5060700;28;20053;-60
2024/03/07 03:00:19;;;;;;;19.10;11.88;;;6.90;90.80;;;;;;5068565;28;20043;-63
2024/03/07 03:02:47;;;;;;;18.77;12.10;;;6.90;90.80;;;;;;5060151;28;20115;-63
2024/03/07 03:05:14;;;;;;;17.70;12.05;;;6.80;90.80;;;;;;5061255;28;20036;-63
2024/03/07 03:07:40;;;;;;;20.98;11.98;;;6.80;90.80;;;;;;5061637;28;20028;-62
2024/03/07 03:10:09;;;;;;;19.73;12.20;;;6.80;90.80;;;;;;5059033;28;20041;-61
2024/03/07 03:12:36;;;;;;;17.13;11.57;;;6.90;90.80;;;;;;5060110;28;20025;-63
2024/03/07 03:15:05;;;;;;;20.88;13.10;;;6.90;90.90;;;;;;5058679;28;20032;-62
2024/03/07 03:17:31;;;;;;;18.92;12.63;;;6.90;90.90;;;;;;5059375;28;20028;-63
2024/03/07 03:19:56;;;;;;;18.00;12.18;;;6.90;91.20;;;;;;5068708;28;20381;-62
2024/03/07 03:22:22;;;;;;;18.67;12.63;;;6.90;90.90;;;;;;5055109;28;20055;-61
2024/03/07 03:24:48;;;;;;;17.60;12.13;;;6.90;90.90;;;;;;5068928;28;20086;-63
2024/03/07 03:27:13;;;;;;;18.98;12.40;;;6.90;90.90;;;;;;5058386;28;20056;-62
2024/03/07 03:29:40;;;;;;;21.95;13.43;;;6.90;91.00;;;;;;5060629;28;20104;-62
2024/03/07 03:32:07;;;;;;;19.08;12.75;;;6.90;90.90;;;;;;5060583;28;20029;-61
2024/03/07 03:34:33;;;;;;;20.08;13.30;;;6.90;90.90;;;;;;5063101;28;20060;-62
2024/03/07 03:36:59;;;;;;;19.25;12.88;;;7.00;90.90;;;;;;5068337;28;20492;-62
2024/03/07 03:39:26;;;;;;;21.75;13.20;;;7.00;90.90;;;;;;5053875;28;20306;-62
2024/03/07 03:41:52;;;;;;;20.77;13.25;;;7.00;90.90;;;;;;5057427;28;20197;-62
2024/03/07 03:44:18;;;;;;;20.80;13.43;;;7.00;90.80;;;;;;5065333;28;20516;-62
2024/03/07 03:46:44;;;;;;;21.67;14.00;;;7.00;90.80;;;;;;5062077;28;20135;-62
2024/03/07 03:49:10;;;;;;;22.08;14.27;;;7.00;90.80;;;;;;5059718;28;20693;-63
2024/03/07 03:51:36;;;;;;;23.73;14.50;;;7.00;90.80;;;;;;5060697;28;20060;-61
2024/03/07 03:54:02;;;;;;;26.38;16.65;;;7.00;90.80;;;;;;5060664;28;20116;-62
2024/03/07 03:56:28;;;;;;;25.95;17.10;;;7.10;90.80;;;;;;5059748;28;20025;-60
2024/03/07 03:58:54;;;;;;;32.80;19.40;;;7.10;90.80;;;;;;5057265;28;20032;-61
2024/03/07 04:01:19;;;;;;;36.75;21.52;;;7.10;90.70;;;;;;5059408;28;20051;-62
2024/03/07 04:03:46;;;;;;;37.22;21.95;;;7.00;90.60;;;;;;5066401;28;20546;-62
2024/03/07 04:06:12;;;;;;;45.25;28.08;;;7.00;90.60;;;;;;5066767;28;20039;-63
2024/03/07 04:08:38;;;;;;;50.08;30.55;;;7.00;90.60;;;;;;5072599;28;20124;-62
2024/03/07 04:11:04;;;;;;;45.97;28.20;;;7.00;90.50;;;;;;5059864;28;20385;-62
2024/03/07 04:13:31;;;;;;;49.40;29.42;;;7.00;90.40;;;;;;5064590;28;20048;-61
2024/03/07 04:15:57;;;;;;;48.25;28.98;;;7.00;90.40;;;;;;5065471;28;20042;-62
2024/03/07 04:18:23;;;;;;;51.00;30.05;;;7.00;90.40;;;;;;5067207;28;20124;-62
2024/03/07 04:20:49;;;;;;;51.78;30.52;;;6.90;90.40;;;;;;5069375;28;20032;-61
2024/03/07 04:23:15;;;;;;;51.50;30.00;;;6.90;90.40;;;;;;5059746;28;20032;-61
2024/03/07 04:25:41;;;;;;;48.42;28.45;;;6.90;90.40;;;;;;5059900;28;20511;-62
2024/03/07 04:28:07;;;;;;;54.67;31.58;;;6.90;90.40;;;;;;5063848;28;20037;-62
2024/03/07 04:30:33;;;;;;;53.00;31.10;;;6.80;90.30;;;;;;5062944;28;20078;-62
2024/03/07 04:32:59;;;;;;;54.17;30.77;;;6.80;90.40;;;;;;5061469;28;20040;-62
2024/03/07 04:35:24;;;;;;;51.83;30.17;;;6.80;90.80;;;;;;5063288;28;20063;-62
2024/03/07 04:37:50;;;;;;;50.47;30.02;;;6.80;90.40;;;;;;5061277;28;20120;-61
2024/03/07 04:40:16;;;;;;;52.55;30.92;;;6.70;90.40;;;;;;5064092;28;20033;-62
2024/03/07 04:42:52;;;;;;;49.05;29.25;;;6.70;90.40;;;;;;5058989;28;20032;-60
2024/03/07 04:45:18;;;;;;;48.03;30.33;;;6.70;90.40;;;;;;5060494;28;20093;-62
2024/03/07 04:47:45;;;;;;;50.10;29.90;;;6.70;90.40;;;;;;5060590;28;20041;-61
2024/03/07 04:50:12;;;;;;;54.20;31.38;;;6.70;90.40;;;;;;5064161;28;20033;-61
2024/03/07 04:52:39;;;;;;;51.58;31.10;;;6.70;90.50;;;;;;5057914;28;20035;-64
2024/03/07 04:55:08;;;;;;;58.47;32.35;;;6.70;90.50;;;;;;5060027;28;20336;-62
2024/03/07 04:57:35;;;;;;;58.60;32.15;;;6.70;90.40;;;;;;5061154;28;20512;-61
2024/03/07 05:00:01;;;;;;;61.25;32.75;;;6.70;90.40;;;;;;5063708;28;20032;-62
2024/03/07 05:02:26;;;;;;;55.03;32.17;;;6.80;90.40;;;;;;5054743;28;20037;-60
2024/03/07 05:04:52;;;;;;;60.97;34.03;;;6.70;90.30;;;;;;5061050;28;20404;-62
2024/03/07 05:07:18;;;;;;;57.25;32.40;;;6.70;90.30;;;;;;5054815;28;20095;-61
2024/03/07 05:09:44;;;;;;;63.50;34.17;;;6.70;90.30;;;;;;5060317;28;20045;-62
2024/03/07 05:12:10;;;;;;;58.72;33.80;;;6.70;90.30;;;;;;5059307;28;20028;-61
2024/03/07 05:14:36;;;;;;;57.22;32.75;;;6.60;90.20;;;;;;5060090;28;20041;-61
2024/03/07 05:17:04;;;;;;;55.42;32.67;;;6.60;90.20;;;;;;5066491;28;20096;-61
2024/03/07 05:19:34;;;;;;;54.50;30.98;;;6.60;90.20;;;;;;5058761;28;20043;-62
2024/03/07 05:22:00;;;;;;;53.45;30.38;;;6.60;90.30;;;;;;5061634;28;20029;-62
2024/03/07 05:24:27;;;;;;;55.72;31.48;;;6.60;90.20;;;;;;5059867;28;20036;-62
2024/03/07 05:26:53;;;;;;;50.88;30.15;;;6.60;90.20;;;;;;5063369;28;20040;-62
2024/03/07 05:29:20;;;;;;;51.28;30.60;;;6.60;90.10;;;;;;5060844;28;20151;-62
2024/03/07 05:31:48;;;;;;;52.30;30.42;;;6.60;90.20;;;;;;5061733;28;20817;-61
2024/03/07 05:34:23;;;;;;;55.85;31.65;;;6.50;90.10;;;;;;5059033;28;20036;-62
2024/03/07 05:36:49;;;;;;;52.30;29.48;;;6.50;90.10;;;;;;5064937;28;20044;-61
2024/03/07 05:39:16;;;;;;;56.35;30.50;;;6.50;90.10;;;;;;5054364;28;20036;-60
2024/03/07 05:41:44;;;;;;;50.80;29.63;;;6.40;90.10;;;;;;5063373;28;20120;-62
2024/03/07 05:44:10;;;;;;;55.58;32.20;;;6.40;90.10;;;;;;5061835;28;20037;-62
2024/03/07 05:46:49;;;;;;;52.50;30.58;;;6.40;90.10;;;;;;5056818;28;20512;-60
2024/03/07 05:49:15;;;;;;;54.38;31.42;;;6.40;90.10;;;;;;5066611;28;20132;-61
2024/03/07 05:51:47;;;;;;;54.80;31.23;;;6.30;90.10;;;;;;5064019;28;20033;-63
2024/03/07 05:54:14;;;;;;;54.30;31.08;;;6.30;90.10;;;;;;5063797;28;20468;-62
2024/03/07 05:56:40;;;;;;;52.15;30.48;;;6.30;90.10;;;;;;5064878;28;20488;-61
2024/03/07 05:59:07;;;;;;;53.88;30.70;;;6.30;90.10;;;;;;5068157;28;20397;-62
2024/03/07 06:01:34;;;;;;;54.67;31.25;;;6.30;90.20;;;;;;5063798;28;20119;-59
2024/03/07 06:04:00;;;;;;;54.42;29.83;;;6.20;90.20;;;;;;5068613;28;20042;-62
2024/03/07 06:06:27;;;;;;;57.67;30.95;;;6.20;90.20;;;;;;5065465;28;20569;-61
2024/03/07 06:08:52;;;;;;;55.53;31.20;;;6.20;90.30;;;;;;5066083;28;20033;-62
2024/03/07 06:11:21;;;;;;;54.53;31.50;;;6.20;90.20;;;;;;5066272;28;20033;-63
2024/03/07 06:13:48;;;;;;;59.17;31.17;;;6.20;90.20;;;;;;5059861;28;20491;-62
2024/03/07 06:16:14;;;;;;;56.88;31.75;;;6.20;90.20;;;;;;5063809;28;20060;-62
2024/03/07 06:18:40;;;;;;;60.90;32.25;;;6.20;90.20;;;;;;5066413;28;20393;-63
2024/03/07 06:21:06;;;;;;;57.08;32.30;;;6.20;90.20;;;;;;5060820;28;20112;-62
2024/03/07 06:23:32;;;;;;;57.00;31.88;;;6.10;90.60;;;;;;5064309;28;20449;-62
2024/03/07 06:25:59;;;;;;;58.28;32.60;;;6.10;90.20;;;;;;5065006;28;20039;-60
2024/03/07 06:28:25;;;;;;;58.28;33.33;;;6.10;90.30;;;;;;5067622;28;20408;-62
2024/03/07 06:30:50;;;;;;;58.38;32.90;;;6.10;90.30;;;;;;5069198;28;20044;-60
2024/03/07 06:33:20;;;;;;;60.33;33.05;;;6.10;90.30;;;;;;5069792;28;20511;-62
2024/03/07 06:35:45;;;;;;;61.60;34.20;;;6.10;90.30;;;;;;5061668;28;20025;-62
2024/03/07 06:38:11;;;;;;;61.03;33.75;;;6.10;90.30;;;;;;5066181;28;20036;-63
2024/03/07 06:40:42;;;;;;;58.90;32.78;;;6.00;90.10;;;;;;5066861;28;20124;-62
2024/03/07 06:43:09;;;;;;;60.95;33.83;;;6.00;90.20;;;;;;5068874;28;20051;-62
2024/03/07 06:45:38;;;;;;;60.58;33.35;;;6.00;90.20;;;;;;5061219;28;20037;-62
2024/03/07 06:48:08;;;;;;;61.92;34.92;;;6.00;90.10;;;;;;5060271;28;20032;-61
2024/03/07 06:50:34;;;;;;;58.83;33.22;;;6.00;90.20;;;;;;5060146;28;20102;-62
2024/03/07 06:53:00;;;;;;;63.65;34.95;;;6.00;90.20;;;;;;5062956;28;20039;-63
2024/03/07 06:55:27;;;;;;;60.17;33.85;;;5.90;90.10;;;;;;5060291;28;20054;-62
2024/03/07 06:57:53;;;;;;;57.97;32.10;;;5.90;90.10;;;;;;5062173;28;20501;-62
2024/03/07 07:00:19;;;;;;;58.33;32.80;;;5.90;90.10;;;;;;5061409;28;20378;-62
2024/03/07 07:02:47;;;;;;;60.97;33.63;;;5.90;90.20;;;;;;5060882;28;20039;-62
2024/03/07 07:05:15;;;;;;;58.35;32.38;;;5.90;90.20;;;;;;5062464;28;20059;-62
2024/03/07 07:07:58;;;;;;;60.00;33.50;;;5.90;90.10;;;;;;5073162;28;20032;-62
2024/03/07 07:10:24;;;;;;;62.42;33.17;;;5.90;90.10;;;;;;5058970;28;20382;-62
2024/03/07 07:12:51;;;;;;;58.85;32.60;;;5.90;90.50;;;;;;5056275;28;20039;-61
2024/03/07 07:15:18;;;;;;;57.55;32.72;;;5.80;90.10;;;;;;5061777;28;20512;-62
2024/03/07 07:17:48;;;;;;;56.72;33.35;;;5.80;90.20;;;;;;5062720;28;20060;-64
2024/03/07 07:20:15;;;;;;;57.33;32.33;;;5.80;90.20;;;;;;5070329;28;20132;-61
2024/03/07 07:22:42;;;;;;;53.72;31.73;;;5.80;90.10;;;;;;5057700;28;20044;-60
2024/03/07 07:25:16;;;;;;;59.13;31.95;;;5.70;90.20;;;;;;5061855;28;20107;-62
2024/03/07 07:27:47;;;;;;;60.72;32.97;;;5.70;90.20;;;;;;5059328;28;20036;-62
2024/03/07 07:30:18;;;;;;;53.72;31.45;;;5.70;90.20;;;;;;5060142;28;20373;-63
2024/03/07 07:32:46;;;;;;;58.58;33.67;;;5.60;90.20;;;;;;5062128;28;20043;-63
2024/03/07 07:35:13;;;;;;;57.95;32.97;;;5.60;90.60;;;;;;5070378;28;20028;-62
2024/03/07 07:37:39;;;;;;;58.90;31.77;;;5.60;90.20;;;;;;5058249;28;20440;-62
2024/03/07 07:40:08;;;;;;;58.20;32.80;;;5.60;90.20;;;;;;5063996;28;20036;-62
2024/03/07 07:42:35;;;;;;;57.13;32.45;;;5.60;90.40;;;;;;5060083;28;20562;-62
2024/03/07 07:45:01;;;;;;;63.03;33.05;;;5.60;90.40;;;;;;5068193;28;20059;-62
2024/03/07 07:47:26;;;;;;;59.28;32.40;;;5.60;90.40;;;;;;5066451;28;20482;-62
2024/03/07 07:49:52;;;;;;;59.95;32.38;;;5.60;90.50;;;;;;5065622;28;20036;-61
2024/03/07 07:52:17;;;;;;;65.00;33.50;;;5.60;90.60;;;;;;5066733;28;20048;-62
2024/03/07 07:54:43;;;;;;;58.22;31.92;;;5.60;90.70;;;;;;5059819;28;20037;-62
2024/03/07 07:57:09;;;;;;;64.80;31.75;;;5.60;90.70;;;;;;5068612;28;20577;-61
2024/03/07 07:59:35;;;;;;;61.55;32.35;;;5.70;90.80;;;;;;5064339;28;20515;-62
2024/03/07 08:02:01;;;;;;;69.32;33.40;;;5.60;90.70;;;;;;5059652;28;20039;-62
2024/03/07 08:04:26;;;;;;;59.28;33.25;;;5.60;90.70;;;;;;5062509;28;20032;-62
2024/03/07 08:06:52;;;;;;;64.45;34.20;;;5.60;90.70;;;;;;5065665;28;20145;-62
2024/03/07 08:09:18;;;;;;;62.38;32.55;;;5.60;90.70;;;;;;5065024;28;20037;-62
2024/03/07 08:11:44;;;;;;;55.97;31.42;;;5.60;90.60;;;;;;5056640;28;20033;-60
2024/03/07 08:14:09;;;;;;;62.05;32.83;;;5.60;90.60;;;;;;5056997;28;20036;-62
2024/03/07 08:16:35;;;;;;;61.65;30.17;;;5.60;91.00;;;;;;5062245;28;20041;-61
2024/03/07 08:19:03;;;;;;;59.55;32.63;;;5.70;90.70;;;;;;5057223;28;20112;-61
2024/03/07 08:21:28;;;;;;;58.55;31.23;;;5.60;90.70;;;;;;5057385;28;20435;-62
2024/03/07 08:23:55;;;;;;;61.10;31.15;;;5.70;90.70;;;;;;5071859;28;20039;-62
2024/03/07 08:26:20;;;;;;;64.05;32.95;;;5.70;90.70;;;;;;5064298;28;20052;-62
2024/03/07 08:28:46;;;;;;;63.85;33.70;;;5.70;90.90;;;;;;5056955;28;20484;-62
2024/03/07 08:31:12;;;;;;;60.42;31.92;;;5.70;90.60;;;;;;5068995;28;20032;-62
2024/03/07 08:33:38;;;;;;;63.10;30.67;;;5.70;90.60;;;;;;5060309;28;20039;-59
2024/03/07 08:36:04;;;;;;;57.30;31.80;;;5.70;90.70;;;;;;5063647;28;20037;-62
2024/03/07 08:38:30;;;;;;;59.90;30.88;;;5.70;90.70;;;;;;5058111;28;20416;-60
2024/03/07 08:40:56;;;;;;;63.33;31.52;;;5.70;90.60;;;;;;5064999;28;20029;-62
2024/03/07 08:43:22;;;;;;;65.13;31.95;;;5.70;90.70;;;;;;5066457;28;20036;-62
2024/03/07 08:45:47;;;;;;;57.95;31.10;;;5.70;90.60;;;;;;5058818;28;20025;-61
2024/03/07 08:48:14;;;;;;;61.03;31.15;;;5.70;90.60;;;;;;5069955;28;20032;-62
2024/03/07 08:50:40;;;;;;;63.03;31.35;;;5.70;90.70;;;;;;5057992;28;20037;-62
2024/03/07 08:53:06;;;;;;;62.63;31.33;;;5.70;90.80;;;;;;5068378;28;20081;-62
2024/03/07 08:55:32;;;;;;;63.15;33.28;;;5.70;90.80;;;;;;5065846;28;20035;-62
2024/03/07 08:57:58;;;;;;;62.53;33.38;;;5.80;90.80;;;;;;5065756;28;20376;-61
2024/03/07 09:00:23;;;;;;;59.70;31.60;;;5.80;90.60;;;;;;5068958;28;20040;-62
2024/03/07 09:02:54;;;;;;;63.70;32.13;;;5.80;90.60;;;;;;5065379;28;20109;-62
2024/03/07 09:05:22;;;;;;;61.40;31.58;;;5.80;90.60;;;;;;5063819;28;20071;-62
2024/03/07 09:07:51;;;;;;;68.88;32.80;;;5.80;90.60;;;;;;5068744;28;20029;-61
2024/03/07 09:10:18;;;;;;;63.97;32.63;;;5.80;90.60;;;;;;5064294;28;20072;-62
2024/03/07 09:12:44;;;;;;;62.90;33.58;;;5.80;90.60;;;;;;5062924;28;20078;-62
2024/03/07 09:15:11;;;;;;;68.57;34.53;;;5.80;90.60;;;;;;5063588;28;20029;-62
2024/03/07 09:17:37;;;;;;;66.32;33.58;;;5.80;90.60;;;;;;5065038;28;20108;-62
2024/03/07 09:20:08;;;;;;;63.85;33.95;;;5.80;90.50;;;;;;5065426;28;20127;-61
2024/03/07 09:22:33;;;;;;;68.80;34.40;;;5.80;90.50;;;;;;5066359;28;20565;-62
2024/03/07 09:24:59;;;;;;;65.95;33.00;;;5.80;90.50;;;;;;5064489;28;20036;-62
2024/03/07 09:27:25;;;;;;;60.75;32.70;;;5.80;90.50;;;;;;5068193;28;20093;-62
2024/03/07 09:29:51;;;;;;;65.32;33.38;;;5.80;90.50;;;;;;5064572;28;20025;-62
2024/03/07 09:32:17;;;;;;;64.20;32.97;;;5.80;90.50;;;;;;5065905;28;20033;-61
2024/03/07 09:34:43;;;;;;;68.85;33.28;;;5.80;90.50;;;;;;5062520;28;20044;-63
2024/03/07 09:37:08;;;;;;;72.70;33.50;;;5.80;90.50;;;;;;5063061;28;20393;-62
2024/03/07 09:39:34;;;;;;;63.20;33.33;;;5.80;90.50;;;;;;5063626;28;20169;-60
2024/03/07 09:42:01;;;;;;;60.17;31.60;;;5.80;90.50;;;;;;5064604;28;20504;-62
2024/03/07 09:44:28;;;;;;;63.78;31.52;;;5.80;90.60;;;;;;5066273;28;20032;-62
2024/03/07 09:46:59;;;;;;;61.70;32.25;;;5.80;90.60;;;;;;5064344;28;20037;-62
2024/03/07 09:49:28;;;;;;;60.50;31.75;;;5.80;90.70;;;;;;5065448;28;20063;-61
2024/03/07 09:51:56;;;;;;;59.28;31.15;;;5.90;90.70;;;;;;5068078;28;20516;-62
2024/03/07 09:54:27;;;;;;;65.80;31.33;;;5.90;90.70;;;;;;5065638;28;20093;-61
2024/03/07 09:57:02;;;;;;;61.38;32.13;;;5.90;90.80;;;;;;5066884;28;20029;-62
2024/03/07 09:59:32;;;;;;;59.47;31.38;;;6.00;90.70;;;;;;5064798;28;20047;-62
2024/03/07 10:01:59;;;;;;;59.88;30.92;;;6.00;90.70;;;;;;5067601;28;20039;-62
2024/03/07 10:04:40;;;;;;;62.35;31.92;;;6.10;90.70;;;;;;5068585;28;20036;-61
2024/03/07 10:07:11;;;;;;;60.17;30.30;;;6.10;90.70;;;;;;5064332;28;20499;-60
2024/03/07 10:09:38;;;;;;;62.28;30.70;;;6.10;90.70;;;;;;5058655;28;20406;-62
2024/03/07 10:12:04;;;;;;;54.50;29.42;;;6.10;90.60;;;;;;5063014;28;20039;-60
2024/03/07 10:14:32;;;;;;;58.58;30.27;;;6.20;90.60;;;;;;5064150;28;20033;-62
2024/03/07 10:16:58;;;;;;;56.97;30.42;;;6.20;90.60;;;;;;5064272;28;20553;-62
2024/03/07 10:19:24;;;;;;;53.33;29.45;;;6.20;90.50;;;;;;5066240;28;20116;-62
2024/03/07 10:21:51;;;;;;;55.88;29.20;;;6.30;90.60;;;;;;5065740;28;20518;-61
2024/03/07 10:24:17;;;;;;;54.05;29.63;;;6.30;90.60;;;;;;5068036;28;20116;-61
2024/03/07 10:26:43;;;;;;;55.30;28.73;;;6.30;90.50;;;;;;5063233;28;20128;-62
2024/03/07 10:29:09;;;;;;;55.78;29.90;;;6.40;90.50;;;;;;5062254;28;20244;-61
2024/03/07 10:31:36;;;;;;;54.42;28.85;;;6.40;90.50;;;;;;5062654;28;20489;-61
2024/03/07 10:34:03;;;;;;;58.10;28.77;;;6.40;90.50;;;;;;5063215;28;20579;-63
2024/03/07 10:36:30;;;;;;;54.45;28.08;;;6.50;90.40;;;;;;5066293;28;20039;-60
2024/03/07 10:39:00;;;;;;;57.47;28.80;;;6.50;90.30;;;;;;5067222;28;20404;-62
2024/03/07 10:41:30;;;;;;;49.83;27.75;;;6.50;90.30;;;;;;5064863;28;20439;-60
2024/03/07 10:44:00;;;;;;;55.20;28.55;;;6.60;90.30;;;;;;5067371;28;20037;-61
2024/03/07 10:46:27;;;;;;;53.05;28.70;;;6.60;90.30;;;;;;5065745;28;20258;-62
2024/03/07 10:48:59;;;;;;;56.80;29.00;;;6.70;90.20;;;;;;5066280;28;20025;-62
2024/03/07 10:51:45;;;;;;;56.28;28.88;;;6.70;90.10;;;;;;5064670;28;20649;-62
2024/03/07 10:54:30;;;;;;;52.85;28.13;;;6.70;89.60;;;;;;5063140;28;20032;-62
2024/03/07 10:57:28;;;;;;;53.22;28.98;;;6.70;89.60;;;;;;5064319;28;20040;-61
2024/03/07 10:59:58;;;;;;;55.95;28.38;;;6.80;90.00;;;;;;5059943;28;20123;-60
2024/03/07 11:02:30;;;;;;;53.30;28.05;;;6.80;90.00;;;;;;5058843;28;20109;-62
2024/03/07 11:04:56;;;;;;;54.35;28.10;;;6.80;90.10;;;;;;5065938;28;20043;-62
2024/03/07 11:07:23;;;;;;;54.00;28.27;;;6.90;90.00;;;;;;5071828;28;20158;-62
2024/03/07 11:09:52;;;;;;;53.55;28.77;;;6.80;89.90;;;;;;5066664;28;20032;-62
2024/03/07 11:12:28;;;;;;;50.90;27.05;;;6.90;90.00;;;;;;5060780;28;20124;-62
2024/03/07 11:14:56;;;;;;;53.55;28.00;;;6.90;89.80;;;;;;5065390;28;20067;-62
2024/03/07 11:17:22;;;;;;;56.00;29.58;;;6.90;89.90;;;;;;5071613;28;20047;-61
2024/03/07 11:19:49;;;;;;;53.08;29.20;;;7.00;89.60;;;;;;5067717;28;20032;-62
2024/03/07 11:22:32;;;;;;;55.58;29.30;;;7.00;89.80;;;;;;5066026;28;20040;-61
2024/03/07 11:25:06;;;;;;;53.42;29.25;;;7.00;89.50;;;;;;5062991;28;20040;-60
2024/03/07 11:27:34;;;;;;;53.70;29.65;;;7.00;89.70;;;;;;5065061;28;20123;-61
2024/03/07 11:30:09;;;;;;;57.75;30.35;;;7.10;89.70;;;;;;5063163;28;20059;-62
2024/03/07 11:32:37;;;;;;;62.95;30.48;;;7.10;89.30;;;;;;5060470;28;20448;-62
2024/03/07 11:35:14;;;;;;;61.80;31.63;;;7.10;89.40;;;;;;5057947;28;20507;-62
2024/03/07 11:37:43;;;;;;;61.10;32.00;;;7.10;89.20;;;;;;5062556;28;20029;-60
2024/03/07 11:40:17;;;;;;;59.42;30.77;;;7.10;89.20;;;;;;5063633;28;20086;-62
2024/03/07 11:42:46;;;;;;;59.28;31.95;;;7.10;89.10;;;;;;5054415;28;20065;-63
2024/03/07 11:45:20;;;;;;;61.25;31.13;;;7.10;89.20;;;;;;5066850;28;20044;-62
2024/03/07 11:47:46;;;;;;;54.58;30.40;;;7.10;89.20;;;;;;5059642;28;20663;-62
2024/03/07 11:50:12;;;;;;;58.83;31.20;;;7.10;89.00;;;;;;5061934;28;20048;-61
2024/03/07 11:52:41;;;;;;;59.90;31.42;;;7.10;88.90;;;;;;5060297;28;20116;-62
2024/03/07 11:55:08;;;;;;;61.25;31.67;;;7.10;88.90;;;;;;5067470;28;20037;-62
2024/03/07 11:57:34;;;;;;;60.42;32.35;;;7.10;88.80;;;;;;5056573;28;20494;-62
2024/03/07 12:00:11;;;;;;;62.47;33.60;;;7.10;88.70;;;;;;5058766;28;20112;-61
2024/03/07 12:02:37;;;;;;;60.10;33.17;;;7.10;88.70;;;;;;5052528;28;20407;-62
2024/03/07 12:05:07;;;;;;;62.70;33.65;;;7.10;88.60;;;;;;5058903;28;20094;-62
2024/03/07 12:07:33;;;;;;;62.50;32.65;;;7.10;88.80;;;;;;5064518;28;20029;-62
2024/03/07 12:10:03;;;;;;;60.90;32.92;;;7.10;89.00;;;;;;5062545;28;20028;-62
2024/03/07 12:12:29;;;;;;;57.13;31.88;;;7.10;88.90;;;;;;5065871;28;20028;-60
2024/03/07 12:14:55;;;;;;;58.13;32.20;;;7.10;88.70;;;;;;5061920;28;20033;-61
2024/03/07 12:17:21;;;;;;;60.95;33.38;;;7.10;88.50;;;;;;5064768;28;20547;-63
2024/03/07 12:19:47;;;;;;;63.05;32.55;;;7.10;88.50;;;;;;5062247;28;20032;-61
2024/03/07 12:22:14;;;;;;;59.83;32.42;;;7.10;88.60;;;;;;5062517;28;20157;-63
2024/03/07 12:24:40;;;;;;;61.53;32.38;;;7.10;88.60;;;;;;5065778;28;20036;-62
2024/03/07 12:27:15;;;;;;;59.63;31.67;;;7.10;88.80;;;;;;5068886;28;20511;-62
2024/03/07 12:29:42;;;;;;;61.58;32.20;;;7.10;88.80;;;;;;5063253;28;20036;-62
2024/03/07 12:32:10;;;;;;;60.53;33.17;;;7.20;88.90;;;;;;5066465;28;20068;-62
2024/03/07 12:34:41;;;;;;;58.72;31.83;;;7.20;88.80;;;;;;5061910;28;20057;-62
2024/03/07 12:37:09;;;;;;;64.93;33.65;;;7.20;88.60;;;;;;5063627;28;20029;-62
2024/03/07 12:39:46;;;;;;;60.85;35.33;;;7.30;88.50;;;;;;5072314;28;20056;-62